createdAt,value
2022-09-01T00:00:04.288Z,72.82
2022-09-01T00:02:35.024Z,73.27
2022-09-01T00:05:04.741Z,73.25
2022-09-01T00:07:35.461Z,73.08
2022-09-01T00:10:08.375Z,73.14
2022-09-01T00:12:38.251Z,73.22
2022-09-01T00:15:09.523Z,72.76
2022-09-01T00:17:39.640Z,71.66
2022-09-01T00:20:09.474Z,72.26
2022-09-01T00:22:38.067Z,72.12
2022-09-01T00:25:08.095Z,72.62
2022-09-01T00:27:36.757Z,72.55
2022-09-01T00:30:07.079Z,73.24
2022-09-01T00:32:35.671Z,72.27
2022-09-01T00:35:06.824Z,71.92
2022-09-01T00:37:35.421Z,70.93
2022-09-01T00:40:04.746Z,71.06
2022-09-01T00:42:33.336Z,70.83
2022-09-01T00:45:01.931Z,71.70
2022-09-01T00:47:31.458Z,71.10
2022-09-01T00:50:00.526Z,70.39
2022-09-01T00:52:33.727Z,71.19
2022-09-01T00:55:08.628Z,71.43
2022-09-01T00:57:37.608Z,70.96
2022-09-01T01:00:11.724Z,70.80
2022-09-01T01:02:42.552Z,70.67
2022-09-01T01:05:14.269Z,71.17
2022-09-01T01:07:47.655Z,70.97
2022-09-01T01:10:19.790Z,71.49
2022-09-01T01:12:49.817Z,71.39
2022-09-01T01:15:20.109Z,71.69
2022-09-01T01:17:48.783Z,71.79
2022-09-01T01:20:37.240Z,72.37
2022-09-01T01:23:16.492Z,72.57
2022-09-01T01:25:50.568Z,73.05
2022-09-01T01:28:22.375Z,73.22
2022-09-01T01:30:54.420Z,73.91
2022-09-01T01:33:26.017Z,73.82
2022-09-01T01:35:57.755Z,73.64
2022-09-01T01:38:27.574Z,73.94
2022-09-01T01:40:57.743Z,74.36
2022-09-01T01:43:27.679Z,74.67
2022-09-01T01:46:02.644Z,75.30
2022-09-01T01:48:34.754Z,75.50
2022-09-01T01:51:05.882Z,76.10
2022-09-01T01:53:35.037Z,76.81
2022-09-01T01:56:06.318Z,76.59
2022-09-01T01:58:35.888Z,77.06
2022-09-01T02:01:04.727Z,77.06
2022-09-01T02:03:38.599Z,77.21
2022-09-01T02:06:09.846Z,77.66
2022-09-01T02:08:39.749Z,77.66
2022-09-01T02:11:11.091Z,77.72
2022-09-01T02:13:40.226Z,78.18
2022-09-01T02:16:13.025Z,78.10
2022-09-01T02:18:48.291Z,78.37
2022-09-01T02:21:20.407Z,78.58
2022-09-01T02:23:51.091Z,78.40
2022-09-01T02:26:22.929Z,78.97
2022-09-01T02:28:55.331Z,79.11
2022-09-01T02:31:26.157Z,79.39
2022-09-01T02:33:55.386Z,79.49
2022-09-01T02:36:25.378Z,79.72
2022-09-01T02:38:56.654Z,80.07
2022-09-01T02:41:29.303Z,80.10
2022-09-01T02:44:00.294Z,80.49
2022-09-01T02:46:29.772Z,81.24
2022-09-01T02:49:00.770Z,81.38
2022-09-01T02:51:29.570Z,81.41
2022-09-01T02:53:58.580Z,81.91
2022-09-01T02:56:28.919Z,81.86
2022-09-01T02:58:57.691Z,82.03
2022-09-01T03:01:30.253Z,82.71
2022-09-01T03:04:01.725Z,82.76
2022-09-01T03:06:34.579Z,83.27
2022-09-01T03:09:06.288Z,83.89
2022-09-01T03:11:39.388Z,84.35
2022-09-01T03:14:09.458Z,84.49
2022-09-01T03:16:39.356Z,84.89
2022-09-01T03:19:09.776Z,85.21
2022-09-01T03:21:40.978Z,85.79
2022-09-01T03:24:12.461Z,86.00
2022-09-01T03:26:44.058Z,86.18
2022-09-01T03:29:12.888Z,86.61
2022-09-01T03:31:42.883Z,86.93
2022-09-01T03:34:12.643Z,86.83
2022-09-01T03:36:50.312Z,87.12
2022-09-01T03:39:19.756Z,87.67
2022-09-01T03:41:49.832Z,87.56
2022-09-01T03:44:18.463Z,87.56
2022-09-01T03:46:47.165Z,88.26
2022-09-01T03:49:17.011Z,88.78
2022-09-01T03:51:46.200Z,88.57
2022-09-01T03:54:15.088Z,88.58
2022-09-01T03:56:45.739Z,88.46
2022-09-01T03:59:17.546Z,89.24
2022-09-01T04:01:46.969Z,89.19
2022-09-01T04:04:16.007Z,89.57
2022-09-01T04:06:46.393Z,89.73
2022-09-01T04:09:15.531Z,90.12
2022-09-01T04:11:46.410Z,90.59
2022-09-01T04:14:16.896Z,90.58
2022-09-01T04:17:11.571Z,91.00
2022-09-01T04:19:40.246Z,91.00
2022-09-01T04:22:13.514Z,91.31
2022-09-01T04:24:46.326Z,92.07
2022-09-01T04:27:18.205Z,92.28
2022-09-01T04:29:48.629Z,92.67
2022-09-01T04:32:17.373Z,92.85
2022-09-01T04:34:46.029Z,93.17
2022-09-01T04:37:18.278Z,92.17
2022-09-01T04:39:55.809Z,92.63
2022-09-01T04:42:27.273Z,92.83
2022-09-01T04:45:00.024Z,92.84
2022-09-01T04:47:31.668Z,93.25
2022-09-01T04:50:13.078Z,93.21
2022-09-01T04:52:43.181Z,92.88
2022-09-01T04:55:17.812Z,93.46
2022-09-01T04:57:49.604Z,92.95
2022-09-01T05:00:25.434Z,93.12
2022-09-01T05:02:57.497Z,93.49
2022-09-01T05:05:27.312Z,93.38
2022-09-01T05:07:56.795Z,93.62
2022-09-01T05:10:30.121Z,93.40
2022-09-01T05:12:58.936Z,93.44
2022-09-01T05:15:31.038Z,93.25
2022-09-01T05:17:59.983Z,93.65
2022-09-01T05:20:30.233Z,93.02
2022-09-01T05:22:58.841Z,93.13
2022-09-01T05:25:27.520Z,93.03
2022-09-01T05:27:57.491Z,93.25
2022-09-01T05:30:28.724Z,92.97
2022-09-01T05:32:58.757Z,92.64
2022-09-01T05:35:32.899Z,92.32
2022-09-01T05:38:02.574Z,92.58
2022-09-01T05:40:32.572Z,92.63
2022-09-01T05:43:01.252Z,92.15
2022-09-01T05:45:44.776Z,91.92
2022-09-01T05:48:21.880Z,92.29
2022-09-01T05:50:52.781Z,91.90
2022-09-01T05:53:21.971Z,91.41
2022-09-01T05:55:50.826Z,91.40
2022-09-01T05:58:20.306Z,91.22
2022-09-01T06:00:53.782Z,91.41
2022-09-01T06:03:25.002Z,91.02
2022-09-01T06:05:54.641Z,90.82
2022-09-01T06:08:29.036Z,90.77
2022-09-01T06:10:57.686Z,91.09
2022-09-01T06:13:27.642Z,90.56
2022-09-01T06:15:58.431Z,90.81
2022-09-01T06:18:28.916Z,90.28
2022-09-01T06:20:57.526Z,89.91
2022-09-01T06:23:26.146Z,88.94
2022-09-01T06:25:55.471Z,89.45
2022-09-01T06:28:24.135Z,89.28
2022-09-01T06:30:53.247Z,89.47
2022-09-01T06:33:25.276Z,88.89
2022-09-01T06:35:55.959Z,88.23
2022-09-01T06:38:27.158Z,87.43
2022-09-01T06:41:01.781Z,87.17
2022-09-01T06:43:30.900Z,87.34
2022-09-01T06:46:03.184Z,86.97
2022-09-01T06:48:31.976Z,85.78
2022-09-01T06:51:21.000Z,85.15
2022-09-01T06:53:56.652Z,84.69
2022-09-01T06:56:30.986Z,84.71
2022-09-01T06:59:04.250Z,84.61
2022-09-01T07:01:33.804Z,83.46
2022-09-01T07:04:02.923Z,82.99
2022-09-01T07:09:38.503Z,83.35
2022-09-01T07:17:51.538Z,81.01
2022-09-01T07:20:24.439Z,80.37
2022-09-01T07:23:04.397Z,79.85
2022-09-01T07:26:00.979Z,79.69
2022-09-01T07:28:37.678Z,79.84
2022-09-01T07:39:50.162Z,76.88
2022-09-01T07:42:56.129Z,82.71
2022-09-01T07:45:28.322Z,75.73
2022-09-01T07:48:00.121Z,75.51
2022-09-01T07:50:41.412Z,75.21
2022-09-01T07:53:22.468Z,73.51
2022-09-01T07:55:54.447Z,73.94
2022-09-01T07:58:26.814Z,73.37
2022-09-01T08:01:02.883Z,73.80
2022-09-01T08:03:32.154Z,73.64
2022-09-01T08:06:06.715Z,73.26
2022-09-01T08:08:36.723Z,73.04
2022-09-01T08:11:07.727Z,70.88
2022-09-01T08:13:41.715Z,70.81
2022-09-01T08:16:18.918Z,72.51
2022-09-01T08:18:49.565Z,72.55
2022-09-01T08:21:22.256Z,72.44
2022-09-01T08:23:51.638Z,72.84
2022-09-01T08:26:24.120Z,72.34
2022-09-01T08:28:56.219Z,72.66
2022-09-01T08:31:30.763Z,71.50
2022-09-01T08:34:00.252Z,71.37
2022-09-01T08:36:29.042Z,69.88
2022-09-01T08:38:57.644Z,69.27
2022-09-01T08:41:47.029Z,68.63
2022-09-01T08:44:29.398Z,68.38
2022-09-01T08:47:02.915Z,66.02
2022-09-01T08:49:42.806Z,65.39
2022-09-01T08:52:20.169Z,64.50
2022-09-01T08:54:51.869Z,62.50
2022-09-01T08:57:25.004Z,61.71
2022-09-01T08:59:54.795Z,61.95
2022-09-01T09:02:34.465Z,63.07
2022-09-01T09:05:15.915Z,64.19
2022-09-01T09:08:10.580Z,62.95
2022-09-01T09:10:49.314Z,61.31
2022-09-01T09:13:25.833Z,60.50
2022-09-01T09:16:07.765Z,59.45
2022-09-01T09:18:54.745Z,60.12
2022-09-01T09:21:30.275Z,60.05
2022-09-01T09:24:08.141Z,59.61
2022-09-01T09:26:44.758Z,59.93
2022-09-01T09:29:14.893Z,60.21
2022-09-01T09:31:49.977Z,60.38
2022-09-01T09:34:33.351Z,60.42
2022-09-01T09:37:25.349Z,60.16
2022-09-01T09:40:16.018Z,59.98
2022-09-01T09:43:03.989Z,58.74
2022-09-01T09:45:36.924Z,58.10
2022-09-01T09:48:11.861Z,59.21
2022-09-01T09:50:43.269Z,56.47
2022-09-01T09:53:18.253Z,57.80
2022-09-01T09:55:58.312Z,56.35
2022-09-01T09:58:31.236Z,56.69
2022-09-01T10:01:17.659Z,56.47
2022-09-01T10:03:50.416Z,55.47
2022-09-01T10:06:33.071Z,56.23
2022-09-01T10:09:03.723Z,53.42
2022-09-01T10:11:40.837Z,54.13
2022-09-01T10:14:22.932Z,53.19
2022-09-01T10:17:10.382Z,50.14
2022-09-01T10:19:42.100Z,50.03
2022-09-01T10:22:11.535Z,49.91
2022-09-01T10:24:44.705Z,49.99
2022-09-01T10:27:25.732Z,51.05
2022-09-01T10:30:18.373Z,48.77
2022-09-01T10:32:55.673Z,49.63
2022-09-01T10:35:28.566Z,49.22
2022-09-01T10:37:59.560Z,46.44
2022-09-01T10:40:43.812Z,46.04
2022-09-01T10:43:37.961Z,44.93
2022-09-01T10:46:44.316Z,45.04
2022-09-01T10:49:51.521Z,46.02
2022-09-01T10:52:57.318Z,45.20
2022-09-01T10:55:48.192Z,44.72
2022-09-01T11:05:19.091Z,42.32
2022-09-01T11:08:00.443Z,41.09
2022-09-01T11:10:50.390Z,39.07
2022-09-01T11:13:37.774Z,38.47
2022-09-01T11:16:47.752Z,36.97
2022-09-01T11:19:37.608Z,37.93
2022-09-01T11:22:26.741Z,40.10
2022-09-01T11:25:40.893Z,38.94
2022-09-01T11:28:41.650Z,40.46
2022-09-01T11:31:27.309Z,41.04
2022-09-01T11:34:21.178Z,42.81
2022-09-01T11:36:58.970Z,43.33
2022-09-01T11:39:40.881Z,40.84
2022-09-01T11:42:19.073Z,40.06
2022-09-01T11:44:53.069Z,39.55
2022-09-01T11:47:26.848Z,40.68
2022-09-01T11:49:59.712Z,41.76
2022-09-01T11:52:31.941Z,42.61
2022-09-01T11:55:02.068Z,40.74
2022-09-01T11:57:33.424Z,42.59
2022-09-01T12:00:04.981Z,41.18
2022-09-01T12:02:37.437Z,40.90
2022-09-01T12:05:26.738Z,42.32
2022-09-01T12:07:55.805Z,42.58
2022-09-01T12:10:33.736Z,43.10
2022-09-01T12:13:07.999Z,42.81
2022-09-01T12:16:00.604Z,43.34
2022-09-01T12:18:32.965Z,41.15
2022-09-01T12:21:03.491Z,41.32
2022-09-01T12:23:34.982Z,41.76
2022-09-01T12:26:08.194Z,41.87
2022-09-01T12:28:41.835Z,42.08
2022-09-01T12:31:18.666Z,43.84
2022-09-01T12:33:49.527Z,45.58
2022-09-01T12:36:23.854Z,46.84
2022-09-01T12:38:53.703Z,48.15
2022-09-01T12:41:32.488Z,48.57
2022-09-01T12:44:29.976Z,48.51
2022-09-01T12:47:01.538Z,48.72
2022-09-01T12:49:50.018Z,49.02
2022-09-01T12:52:26.120Z,48.02
2022-09-01T12:55:11.318Z,48.70
2022-09-01T12:57:49.463Z,47.91
2022-09-01T13:00:21.427Z,48.55
2022-09-01T13:02:53.389Z,49.58
2022-09-01T13:05:32.716Z,48.34
2022-09-01T13:08:07.616Z,47.59
2022-09-01T13:10:39.545Z,46.83
2022-09-01T13:13:11.080Z,46.82
2022-09-01T13:15:45.447Z,47.33
2022-09-01T13:18:14.075Z,45.31
2022-09-01T13:20:43.015Z,44.73
2022-09-01T13:23:12.837Z,43.35
2022-09-01T13:25:44.363Z,43.92
2022-09-01T13:28:16.232Z,41.99
2022-09-01T13:34:37.946Z,42.13
2022-09-01T13:37:06.844Z,41.87
2022-09-01T13:39:35.516Z,41.87
2022-09-01T13:42:04.142Z,43.02
2022-09-01T13:44:35.394Z,44.30
2022-09-01T13:50:11.419Z,44.64
2022-09-01T13:52:43.111Z,43.49
2022-09-01T13:55:13.943Z,43.29
2022-09-01T13:57:42.719Z,43.72
2022-09-01T14:00:17.414Z,42.87
2022-09-01T14:02:50.316Z,43.19
2022-09-01T14:05:27.227Z,42.44
2022-09-01T14:07:56.729Z,43.32
2022-09-01T14:10:27.134Z,42.91
2022-09-01T14:12:55.779Z,44.23
2022-09-01T14:15:27.471Z,45.55
2022-09-01T14:17:58.094Z,45.49
2022-09-01T14:20:31.406Z,45.21
2022-09-01T14:26:53.155Z,46.22
2022-09-01T14:29:21.883Z,46.52
2022-09-01T14:31:52.017Z,46.68
2022-09-01T14:34:20.697Z,44.27
2022-09-01T14:36:49.764Z,43.92
2022-09-01T14:39:18.560Z,43.01
2022-09-01T14:41:47.187Z,42.64
2022-09-01T14:44:16.114Z,42.08
2022-09-01T14:46:45.175Z,42.14
2022-09-01T14:49:21.647Z,42.83
2022-09-01T14:54:42.496Z,43.48
2022-09-01T15:00:00.747Z,42.76
2022-09-01T15:02:33.407Z,42.80
2022-09-01T15:05:03.584Z,43.24
2022-09-01T15:07:32.323Z,42.68
2022-09-01T15:10:01.344Z,42.63
2022-09-01T15:12:31.889Z,42.87
2022-09-01T15:15:02.671Z,42.53
2022-09-01T15:17:31.783Z,42.52
2022-09-01T15:20:17.289Z,43.52
2022-09-01T15:22:47.101Z,42.36
2022-09-01T15:25:15.883Z,42.59
2022-09-01T15:27:45.937Z,42.63
2022-09-01T15:30:17.382Z,42.69
2022-09-01T15:32:48.479Z,42.21
2022-09-01T15:35:19.012Z,43.52
2022-09-01T15:37:48.742Z,43.47
2022-09-01T15:40:19.402Z,44.42
2022-09-01T15:42:48.923Z,44.25
2022-09-01T15:45:20.611Z,44.31
2022-09-01T15:47:49.572Z,44.51
2022-09-01T15:50:22.300Z,45.28
2022-09-01T15:52:54.078Z,45.42
2022-09-01T15:55:25.485Z,45.82
2022-09-01T15:57:55.400Z,45.47
2022-09-01T16:00:26.554Z,45.08
2022-09-01T16:02:56.657Z,45.35
2022-09-01T16:05:27.388Z,44.64
2022-09-01T16:10:33.668Z,45.32
2022-09-01T16:13:05.409Z,45.05
2022-09-01T16:15:35.313Z,45.31
2022-09-01T16:18:34.124Z,44.51
2022-09-01T16:21:14.652Z,44.81
2022-09-01T16:23:48.821Z,45.14
2022-09-01T16:26:20.490Z,45.62
2022-09-01T16:28:51.866Z,44.74
2022-09-01T16:31:24.987Z,45.02
2022-09-01T16:33:57.011Z,45.66
2022-09-01T16:36:36.287Z,45.42
2022-09-01T16:39:17.902Z,44.91
2022-09-01T16:41:56.115Z,45.15
2022-09-01T16:44:36.318Z,45.53
2022-09-01T16:47:15.960Z,46.72
2022-09-01T16:49:54.524Z,46.85
2022-09-01T16:52:29.096Z,45.81
2022-09-01T16:55:22.827Z,45.70
2022-09-01T16:58:00.602Z,46.48
2022-09-01T17:00:39.582Z,47.11
2022-09-01T17:03:17.185Z,47.46
2022-09-01T17:05:56.134Z,48.36
2022-09-01T17:08:31.258Z,48.79
2022-09-01T17:11:09.739Z,49.31
2022-09-01T17:13:41.587Z,49.35
2022-09-01T17:16:12.740Z,49.19
2022-09-01T17:18:48.335Z,48.42
2022-09-01T17:21:21.003Z,48.33
2022-09-01T17:23:56.743Z,48.59
2022-09-01T17:26:28.075Z,50.38
2022-09-01T17:29:01.801Z,49.97
2022-09-01T17:31:46.743Z,50.59
2022-09-01T17:34:27.609Z,50.70
2022-09-01T17:37:05.616Z,51.16
2022-09-01T17:39:49.439Z,51.85
2022-09-01T17:42:27.554Z,52.38
2022-09-01T17:44:59.354Z,52.59
2022-09-01T17:47:37.390Z,53.57
2022-09-01T17:50:15.256Z,53.28
2022-09-01T17:52:57.088Z,53.10
2022-09-01T17:55:43.148Z,53.90
2022-09-01T17:58:23.267Z,54.01
2022-09-01T18:00:59.780Z,55.34
2022-09-01T18:04:06.145Z,56.06
2022-09-01T18:06:49.672Z,56.05
2022-09-01T18:09:21.708Z,56.51
2022-09-01T18:11:56.889Z,57.19
2022-09-01T18:14:31.202Z,57.29
2022-09-01T18:17:15.320Z,57.22
2022-09-01T18:19:53.067Z,58.11
2022-09-01T18:22:25.814Z,58.08
2022-09-01T18:24:58.913Z,57.88
2022-09-01T18:27:33.179Z,58.17
2022-09-01T18:30:02.761Z,58.36
2022-09-01T18:32:42.636Z,58.60
2022-09-01T18:35:30.647Z,58.71
2022-09-01T18:38:10.733Z,59.02
2022-09-01T18:40:52.913Z,58.78
2022-09-01T18:43:31.069Z,59.17
2022-09-01T18:46:05.120Z,59.02
2022-09-01T18:48:41.337Z,58.95
2022-09-01T18:51:18.577Z,58.88
2022-09-01T18:53:52.306Z,59.04
2022-09-01T18:56:37.413Z,59.56
2022-09-01T18:59:34.832Z,60.31
2022-09-01T19:02:22.869Z,60.20
2022-09-01T19:04:54.773Z,60.11
2022-09-01T19:07:30.267Z,60.82
2022-09-01T19:10:08.160Z,61.13
2022-09-01T19:12:48.687Z,60.89
2022-09-01T19:15:25.713Z,61.57
2022-09-01T19:18:14.431Z,61.61
2022-09-01T19:20:51.105Z,62.05
2022-09-01T19:23:26.671Z,62.84
2022-09-01T19:26:02.634Z,63.26
2022-09-01T19:28:40.677Z,63.26
2022-09-01T19:31:22.336Z,63.32
2022-09-01T19:33:54.216Z,63.91
2022-09-01T19:36:29.483Z,64.06
2022-09-01T19:39:10.801Z,64.08
2022-09-01T19:41:44.766Z,64.03
2022-09-01T19:44:18.467Z,63.71
2022-09-01T19:46:52.442Z,64.04
2022-09-01T19:49:31.299Z,64.16
2022-09-01T19:52:08.633Z,65.12
2022-09-01T19:54:47.307Z,64.80
2022-09-01T19:57:22.139Z,65.11
2022-09-01T19:59:59.516Z,65.39
2022-09-01T20:02:33.854Z,65.55
2022-09-01T20:05:10.651Z,66.28
2022-09-01T20:07:45.421Z,66.53
2022-09-01T20:10:23.634Z,66.42
2022-09-01T20:13:14.858Z,66.56
2022-09-01T20:15:49.685Z,66.48
2022-09-01T20:18:25.647Z,66.52
2022-09-01T20:20:54.320Z,66.72
2022-09-01T20:23:28.500Z,66.91
2022-09-01T20:26:00.050Z,67.00
2022-09-01T20:28:38.941Z,67.25
2022-09-01T20:31:14.676Z,67.43
2022-09-01T20:33:48.652Z,68.04
2022-09-01T20:36:22.423Z,68.16
2022-09-01T20:39:13.580Z,68.04
2022-09-01T20:41:49.256Z,67.86
2022-09-01T20:44:27.620Z,68.11
2022-09-01T20:46:56.239Z,68.31
2022-09-01T20:49:26.299Z,68.33
2022-09-01T20:52:01.286Z,68.37
2022-09-01T20:54:36.686Z,68.74
2022-09-01T20:57:19.249Z,68.94
2022-09-01T20:59:51.242Z,68.69
2022-09-01T21:02:36.931Z,69.34
2022-09-01T21:05:24.671Z,69.15
2022-09-01T21:08:10.007Z,69.37
2022-09-01T21:10:46.419Z,69.49
2022-09-01T21:13:25.147Z,69.67
2022-09-01T21:16:01.222Z,69.94
2022-09-01T21:18:42.920Z,70.20
2022-09-01T21:21:24.849Z,70.28
2022-09-01T21:23:53.558Z,70.53
2022-09-01T21:26:22.374Z,70.26
2022-09-01T21:28:54.744Z,70.54
2022-09-01T21:31:24.253Z,70.83
2022-09-01T21:33:53.205Z,71.10
2022-09-01T21:36:23.287Z,71.39
2022-09-01T21:38:51.892Z,71.45
2022-09-01T21:41:20.726Z,71.84
2022-09-01T21:43:50.239Z,71.78
2022-09-01T21:46:20.419Z,71.54
2022-09-01T21:48:49.122Z,71.62
2022-09-01T21:51:18.000Z,72.07
2022-09-01T21:53:48.053Z,72.19
2022-09-01T21:56:16.780Z,72.04
2022-09-01T21:58:45.360Z,72.08
2022-09-01T22:01:18.873Z,72.60
2022-09-01T22:03:47.619Z,72.68
2022-09-01T22:06:16.191Z,72.72
2022-09-01T22:08:44.803Z,72.75
2022-09-01T22:11:14.735Z,73.40
2022-09-01T22:13:43.976Z,73.32
2022-09-01T22:16:18.649Z,72.63
2022-09-01T22:18:47.681Z,72.56
2022-09-01T22:21:17.111Z,72.42
2022-09-01T22:23:45.980Z,72.62
2022-09-01T22:26:21.577Z,73.22
2022-09-01T22:28:50.759Z,73.48
2022-09-01T22:31:21.977Z,74.29
2022-09-01T22:33:51.184Z,73.99
2022-09-01T22:36:25.061Z,73.55
2022-09-01T22:38:54.088Z,73.29
2022-09-01T22:41:25.520Z,73.19
2022-09-01T22:43:54.447Z,72.86
2022-09-01T22:46:23.261Z,72.98
2022-09-01T22:48:52.005Z,73.22
2022-09-01T22:51:20.839Z,73.46
2022-09-01T22:53:50.486Z,74.11
2022-09-01T22:56:24.239Z,74.55
2022-09-01T22:58:55.264Z,74.79
2022-09-01T23:01:30.127Z,74.88
2022-09-01T23:04:00.157Z,74.92
2022-09-01T23:06:30.867Z,75.28
2022-09-01T23:09:01.148Z,75.90
2022-09-01T23:11:31.188Z,76.09
2022-09-01T23:13:59.964Z,76.46
2022-09-01T23:16:29.094Z,76.36
2022-09-01T23:18:57.792Z,76.34
2022-09-01T23:21:34.201Z,76.36
2022-09-01T23:24:03.291Z,76.56
2022-09-01T23:26:34.880Z,76.85
2022-09-01T23:29:04.955Z,76.63
2022-09-01T23:31:35.972Z,76.68
2022-09-01T23:34:06.069Z,77.01
2022-09-01T23:36:35.465Z,76.64
2022-09-01T23:39:05.054Z,76.86
2022-09-01T23:41:37.039Z,77.10
2022-09-01T23:44:09.571Z,77.46
2022-09-01T23:46:41.727Z,76.94
2022-09-01T23:49:11.473Z,77.38
2022-09-01T23:51:41.072Z,77.27
2022-09-01T23:54:10.137Z,77.15
2022-09-01T23:56:40.403Z,77.45
2022-09-01T23:59:09.708Z,76.46
